Time;durP1;ratioP1;P1;durP2;ratioP2;P2;SDS_P1;SDS_P2;PMS_P1;PMS_P2;Temp;Humidity;BMP_temperature;BMP_pressure;BME280_temperature;BME280_humidity;BME280_pressure;Samples;Min_cycle;Max_cycle;Signal;HPM_P1;HPM_P2
2022/12/23 00:00:21;;;;;;;4.67;2.40;;;10.30;99.90;;;13.32;57.72;96546.00;5042320;28;20041;-54
2022/12/23 00:02:49;;;;;;;3.57;1.60;;;10.30;99.90;;;13.29;57.62;96538.34;5042310;28;20050;-55
2022/12/23 00:05:17;;;;;;;5.00;1.60;;;10.30;99.90;;;13.30;57.65;96543.53;5042619;28;20360;-54
2022/12/23 00:07:45;;;;;;;4.10;1.70;;;10.20;99.90;;;13.31;57.72;96544.34;5041817;28;20267;-53
2022/12/23 00:10:13;;;;;;;3.07;1.33;;;10.20;99.90;;;13.26;57.98;96547.63;5042070;28;20041;-56
2022/12/23 00:15:27;;;;;;;3.47;1.40;;;10.20;99.90;;;13.29;57.74;96552.53;5042291;28;20049;-54
2022/12/23 00:17:55;;;;;;;2.53;1.40;;;10.20;99.90;;;13.35;57.83;96554.41;5042083;28;20056;-54
2022/12/23 00:20:23;;;;;;;4.77;1.80;;;10.20;99.90;;;13.33;58.20;96550.31;5041927;28;20075;-56
2022/12/23 00:23:05;;;;;;;6.07;1.60;;;10.20;99.90;;;13.34;57.87;96552.78;5041579;28;20056;-55
2022/12/23 00:25:39;;;;;;;7.63;1.80;;;10.20;99.90;;;13.38;57.84;96542.50;5041983;28;20247;-55
2022/12/23 00:28:14;;;;;;;;;;;10.20;99.90;;;13.43;57.65;96544.56;5042235;28;20496;-56
2022/12/23 00:30:47;;;;;;;6.15;2.38;;;10.20;99.90;;;13.45;57.83;96537.16;5041787;28;19923;-53
2022/12/23 00:33:18;;;;;;;3.17;1.50;;;10.20;99.90;;;13.39;57.79;96523.56;5041918;28;20060;-53
2022/12/23 00:35:47;;;;;;;4.57;1.53;;;10.20;99.90;;;13.41;58.09;96520.69;5041988;28;20365;-56
2022/12/23 00:42:52;;;;;;;3.73;1.90;;;10.30;99.90;;;13.42;58.18;96530.38;5041757;28;20263;-51
2022/12/23 00:44:02;;;;;;;2.77;1.40;;;10.40;99.90;;;13.41;58.22;96534.06;5033152;28;20048;-53
2022/12/23 00:46:31;;;;;;;3.57;1.97;;;10.30;99.90;;;13.43;58.39;96520.50;5044696;28;20352;-56
2022/12/23 00:51:45;;;;;;;7.43;3.13;;;10.30;99.90;;;13.43;58.44;96525.84;5045082;28;20045;-54
2022/12/23 00:54:13;;;;;;;4.63;1.97;;;10.40;99.90;;;13.37;58.96;96530.16;5044849;28;20401;-54
2022/12/23 00:56:41;;;;;;;7.67;2.97;;;10.40;99.90;;;13.44;58.89;96538.19;5044761;28;20049;-54
2022/12/23 00:59:09;;;;;;;6.87;2.90;;;10.50;99.90;;;13.50;58.99;96548.06;5045698;28;20049;-53
2022/12/23 01:07:10;;;;;;;1.93;0.87;;;10.60;99.90;;;13.57;59.28;96552.38;5037640;28;20049;-56
2022/12/23 01:09:38;;;;;;;1.00;0.80;;;10.60;99.90;;;13.63;59.18;96555.22;5045366;28;20267;-55
2022/12/23 01:12:06;;;;;;;1.73;0.83;;;10.70;99.90;;;13.64;59.29;96557.69;5045146;28;20189;-55
2022/12/23 01:14:34;;;;;;;1.50;0.80;;;10.70;99.90;;;13.70;59.48;96569.44;5044713;28;20057;-54
2022/12/23 01:17:02;;;;;;;1.07;0.63;;;10.80;99.90;;;13.73;59.93;96571.69;5037499;28;20251;-55
2022/12/23 01:19:30;;;;;;;1.53;0.90;;;10.80;99.90;;;13.80;59.78;96567.13;5045461;28;20052;-52
2022/12/23 01:21:58;;;;;;;1.17;0.70;;;10.90;99.90;;;13.85;59.82;96562.00;5044675;28;20048;-55
2022/12/23 01:24:30;;;;;;;0.87;0.63;;;11.00;99.90;;;13.85;60.41;96567.34;5045261;28;20037;-53
2022/12/23 01:26:59;;;;;;;0.50;0.47;;;11.10;99.90;;;13.86;61.00;96563.66;5045230;28;20041;-55
2022/12/23 01:29:27;;;;;;;1.10;0.40;;;11.10;99.90;;;13.89;61.16;96586.50;5044397;28;20057;-55
2022/12/23 01:31:55;;;;;;;0.53;0.40;;;11.20;99.90;;;13.92;61.46;96583.38;5043704;28;20047;-53
2022/12/23 01:34:23;;;;;;;0.90;0.40;;;11.30;99.90;;;13.90;61.98;96590.78;5043932;28;20053;-55
2022/12/23 01:36:55;;;;;;;0.87;0.33;;;11.40;99.90;;;14.07;61.44;96591.19;5045217;28;20079;-56
2022/12/23 01:39:22;;;;;;;0.35;0.35;;;11.50;99.90;;;13.93;62.18;96596.56;5045053;28;20288;-53
2022/12/23 01:44:48;;;;;;;0.20;0.20;;;11.70;99.90;;;14.23;61.63;96604.13;5043522;28;20045;-55
2022/12/23 01:47:37;;;;;;;0.53;0.40;;;11.70;99.90;;;14.15;62.23;96602.50;5043525;28;20058;-56
2022/12/23 01:50:22;;;;;;;0.57;0.50;;;11.80;99.90;;;14.29;61.84;96600.63;5035862;28;20050;-52
2022/12/23 01:53:12;;;;;;;0.30;0.30;;;11.80;99.90;;;14.40;61.47;96592.97;5043939;28;20045;-55
2022/12/23 01:56:11;;;;;;;0.40;0.40;;;11.80;99.90;;;14.28;62.10;96616.88;5042388;28;20052;-55
2022/12/23 01:58:43;;;;;;;0.50;0.50;;;11.90;99.90;;;14.42;61.76;96618.47;5044592;28;20352;-56
2022/12/23 02:04:06;;;;;;;0.20;0.20;;;11.90;99.90;;;14.17;62.97;96621.84;5041603;28;20053;-55
2022/12/23 02:09:35;;;;;;;0.38;0.38;;;12.00;99.90;;;14.60;61.42;96627.72;5038379;28;20045;-56
2022/12/23 02:12:47;;;;;;;0.30;0.30;;;12.00;99.90;;;14.29;62.62;96646.13;5044143;28;20045;-53
2022/12/23 02:18:40;;;;;;;0.20;0.20;;;12.10;99.90;;;14.41;62.54;96646.31;5036839;28;20056;-53
2022/12/23 02:21:24;;;;;;;0.30;0.30;;;12.10;99.90;;;14.62;61.93;96653.28;5036415;28;20049;-54
2022/12/23 02:24:38;;;;;;;0.57;0.40;;;12.10;99.90;;;14.63;61.91;96660.28;5043569;28;20472;-56
2022/12/23 02:27:26;;;;;;;0.20;0.20;;;12.10;99.90;;;14.05;64.14;96655.63;5036033;28;20071;-56
2022/12/23 02:30:18;;;;;;;1.48;0.45;;;12.10;99.90;;;14.46;62.62;96664.41;5043585;28;20252;-55
2022/12/23 02:33:59;;;;;;;0.57;0.40;;;12.10;99.90;;;14.26;63.36;96667.94;5043984;28;20054;-54
2022/12/23 02:37:05;;;;;;;0.32;0.30;;;12.10;99.90;;;14.08;64.04;96673.94;5040143;28;20051;-55
2022/12/23 02:39:50;;;;;;;0.35;0.35;;;12.20;99.90;;;14.16;64.08;96683.63;5057645;28;20067;-52
2022/12/23 02:42:31;;;;;;;0.35;0.35;;;12.20;99.90;;;14.31;63.70;96675.38;5037855;28;20173;-56
2022/12/23 02:45:09;;;;;;;0.20;0.20;;;12.20;99.90;;;14.34;63.60;96678.44;5042690;28;20239;-55
2022/12/23 02:47:48;;;;;;;0.40;0.30;;;12.10;99.90;;;14.18;64.24;96689.59;5042260;28;20045;-53
2022/12/23 02:50:24;;;;;;;0.20;0.20;;;12.10;99.90;;;14.16;64.32;96687.13;5035695;28;20063;-56
2022/12/23 02:52:54;;;;;;;0.40;0.40;;;12.10;99.90;;;14.28;63.98;96687.31;5041770;28;20045;-56
2022/12/23 02:55:28;;;;;;;0.20;0.20;;;12.10;99.90;;;13.87;65.16;96687.53;5042684;28;20257;-53
2022/12/23 02:57:59;;;;;;;0.30;0.30;;;12.00;99.90;;;13.78;65.67;96694.94;5043714;28;20356;-53
2022/12/23 03:00:27;;;;;;;0.40;0.40;;;12.00;99.90;;;13.49;66.58;96705.00;5042477;28;20046;-54
2022/12/23 03:02:55;;;;;;;0.40;0.40;;;12.00;99.90;;;13.98;65.16;96701.13;5041744;28;20045;-54
2022/12/23 03:05:27;;;;;;;0.30;0.30;;;12.00;99.90;;;13.86;65.82;96710.81;5041699;28;20049;-54
2022/12/23 03:08:01;;;;;;;0.30;0.30;;;12.00;99.90;;;13.75;66.30;96693.50;5042826;28;20052;-56
2022/12/23 03:11:18;;;;;;;0.22;0.22;;;11.90;99.90;;;13.40;67.97;96716.88;5042728;28;20248;-56
2022/12/23 03:14:19;;;;;;;0.30;0.30;;;12.00;99.90;;;13.39;68.17;96720.56;5043136;28;20048;-56
2022/12/23 03:17:13;;;;;;;0.38;0.38;;;11.80;99.90;;;13.79;66.73;96721.47;5043215;28;20239;-54
2022/12/23 03:20:14;;;;;;;0.20;0.20;;;11.80;99.90;;;13.98;65.88;96724.41;5042285;28;20068;-54
2022/12/23 03:23:27;;;;;;;0.30;0.30;;;11.90;99.90;;;14.16;65.43;96721.09;5038270;28;20045;-53
2022/12/23 03:26:09;;;;;;;0.20;0.20;;;11.80;99.90;;;14.31;64.48;96719.03;5042905;28;20072;-56
2022/12/23 03:28:59;;;;;;;0.30;0.30;;;11.80;99.90;;;14.27;64.26;96719.63;5042037;28;20047;-56
2022/12/23 03:31:32;;;;;;;0.75;0.75;;;11.80;99.90;;;14.30;64.33;96729.94;5037336;28;20099;-55
2022/12/23 03:34:12;;;;;;;0.45;0.43;;;11.80;99.90;;;14.24;64.28;96730.78;5041143;28;20076;-56
2022/12/23 03:36:50;;;;;;;1.27;0.40;;;11.80;99.90;;;14.31;64.14;96734.28;5041807;28;20056;-56
2022/12/23 03:39:24;;;;;;;0.32;0.32;;;11.80;99.90;;;14.23;64.27;96739.81;5041631;28;20239;-56
2022/12/23 03:41:59;;;;;;;0.60;0.60;;;11.70;99.90;;;13.93;65.44;96741.03;5041362;28;20071;-55
2022/12/23 03:44:33;;;;;;;1.35;0.40;;;11.70;99.90;;;14.21;64.23;96741.88;5041810;28;20269;-55
2022/12/23 03:47:31;;;;;;;;;;;11.70;99.90;;;14.33;64.04;96750.94;5041289;28;20045;-54
2022/12/23 03:50:09;;;;;;;1.52;0.32;;;11.70;99.90;;;14.25;63.76;96762.69;5042408;28;19917;-55
2022/12/23 03:52:55;;;;;;;0.63;0.38;;;11.60;99.90;;;13.91;65.19;96747.63;5041095;28;20347;-54
2022/12/23 03:55:39;;;;;;;0.40;0.40;;;11.60;99.90;;;14.09;64.49;96742.50;5035403;28;20045;-56
2022/12/23 03:58:37;;;;;;;1.55;0.50;;;11.70;99.90;;;14.01;64.71;96756.06;5034171;28;20051;-52
2022/12/23 04:01:13;;;;;;;0.65;0.50;;;11.70;99.90;;;14.18;64.08;96768.03;5042245;28;20054;-55
2022/12/23 04:04:13;;;;;;;0.60;0.60;;;11.70;99.90;;;14.17;64.08;96770.91;5042116;28;20244;-52
2022/12/23 04:07:02;;;;;;;0.70;0.60;;;11.70;99.90;;;14.28;63.82;96774.84;5041070;28;20037;-55
2022/12/23 04:09:30;;;;;;;0.63;0.63;;;11.70;99.90;;;14.26;63.67;96772.34;5041341;28;20063;-56
2022/12/23 04:11:58;;;;;;;0.70;0.70;;;11.70;99.90;;;14.20;63.86;96770.50;5041833;28;20041;-56
2022/12/23 04:14:26;;;;;;;1.00;0.90;;;11.70;99.90;;;14.14;64.02;96771.31;5041188;28;20052;-51
2022/12/23 04:16:57;;;;;;;0.55;0.50;;;11.70;99.90;;;14.02;64.50;96789.03;5042108;28;20049;-54
2022/12/23 04:19:25;;;;;;;0.77;0.68;;;11.60;99.90;;;14.06;64.47;96780.38;5040185;28;20056;-52
2022/12/23 04:21:56;;;;;;;0.95;0.77;;;11.70;99.90;;;13.63;65.73;96783.38;5024260;28;20053;-53
2022/12/23 04:24:24;;;;;;;0.80;0.80;;;11.60;99.90;;;13.94;64.64;96779.34;5040888;28;20042;-52
2022/12/23 04:26:51;;;;;;;2.42;1.55;;;11.60;99.90;;;14.10;64.14;96781.63;5041950;28;20076;-55
2022/12/23 04:29:19;;;;;;;0.73;0.73;;;11.60;99.90;;;13.91;64.81;96780.56;5041997;28;20365;-56
2022/12/23 04:31:47;;;;;;;0.60;0.60;;;11.60;99.90;;;13.55;66.07;96771.03;5041580;28;20041;-53
2022/12/23 04:34:15;;;;;;;0.83;0.70;;;11.50;99.90;;;13.86;65.06;96779.50;5041864;28;20045;-53
2022/12/23 04:36:43;;;;;;;0.90;0.73;;;11.50;99.90;;;13.97;64.16;96766.34;5042032;28;20252;-55
2022/12/23 04:39:10;;;;;;;0.83;0.83;;;11.50;99.90;;;13.91;64.46;96783.22;5041930;28;20037;-56
2022/12/23 04:41:38;;;;;;;1.03;0.73;;;11.50;99.90;;;13.90;64.45;96783.44;5041841;28;20052;-50
2022/12/23 04:44:07;;;;;;;1.08;0.90;;;11.50;99.90;;;14.01;64.11;96776.66;5041414;28;20050;-55
2022/12/23 04:46:35;;;;;;;1.15;0.90;;;11.50;99.90;;;13.90;64.28;96792.31;5042306;28;20046;-54
2022/12/23 04:49:03;;;;;;;1.48;0.80;;;11.40;99.90;;;13.50;65.60;96788.69;5041587;28;20055;-54
2022/12/23 04:51:31;;;;;;;0.83;0.80;;;11.30;99.90;;;13.67;65.11;96792.66;5041867;28;20220;-56
2022/12/23 04:53:59;;;;;;;0.90;0.73;;;11.40;99.90;;;13.70;64.73;96786.88;5040551;28;20056;-56
2022/12/23 04:56:26;;;;;;;1.67;0.88;;;11.30;99.90;;;13.54;65.13;96793.44;5041620;28;20046;-54
2022/12/23 04:58:54;;;;;;;2.37;1.40;;;11.20;99.90;;;13.23;66.38;96801.91;5041809;28;20240;-55
2022/12/23 05:01:22;;;;;;;0.80;0.80;;;11.10;99.90;;;12.92;67.68;96808.53;5040030;28;20360;-55
2022/12/23 05:03:50;;;;;;;1.00;0.90;;;11.10;99.90;;;13.33;66.56;96802.41;5040349;28;20052;-56
2022/12/23 05:06:18;;;;;;;0.87;0.80;;;11.10;99.90;;;13.39;65.94;96796.25;5039331;28;20052;-53
2022/12/23 05:08:45;;;;;;;0.93;0.70;;;11.20;99.90;;;13.59;65.22;96793.66;5041682;28;20332;-55
2022/12/23 05:11:13;;;;;;;0.83;0.80;;;11.10;99.90;;;13.54;65.49;96795.28;5041451;28;20166;-54
2022/12/23 05:13:41;;;;;;;0.97;0.70;;;11.10;99.90;;;13.57;65.00;96793.03;5041054;28;20049;-54
2022/12/23 05:16:09;;;;;;;0.60;0.60;;;11.10;99.90;;;13.67;64.75;96807.88;5041560;28;20063;-54
2022/12/23 05:18:36;;;;;;;0.80;0.80;;;11.10;99.90;;;13.69;64.46;96817.34;5041969;28;20049;-54
2022/12/23 05:21:04;;;;;;;0.70;0.60;;;11.10;99.90;;;13.70;64.55;96827.00;5041347;28;20249;-52
2022/12/23 05:23:32;;;;;;;1.53;1.00;;;11.10;99.90;;;13.52;65.01;96830.25;5040147;28;20045;-56
2022/12/23 05:26:00;;;;;;;1.10;0.60;;;11.00;99.90;;;13.68;64.55;96825.56;5040934;28;20057;-55
2022/12/23 05:28:28;;;;;;;1.20;0.60;;;11.10;99.90;;;13.82;64.15;96826.44;5041535;28;20041;-52
2022/12/23 05:31:06;;;;;;;1.00;0.80;;;11.20;99.90;;;13.82;64.17;96837.13;5043325;28;20045;-54
2022/12/23 05:33:34;;;;;;;0.90;0.60;;;11.30;99.90;;;13.80;63.93;96823.94;5043904;28;20037;-52
2022/12/23 05:36:03;;;;;;;1.00;0.60;;;11.30;99.90;;;14.08;63.43;96825.69;5043374;28;20059;-54
2022/12/23 05:38:31;;;;;;;1.03;0.83;;;11.40;99.90;;;14.08;63.41;96821.16;5045922;28;20251;-52
2022/12/23 05:40:59;;;;;;;1.03;0.77;;;11.40;99.90;;;14.26;62.86;96827.75;5043422;28;20055;-54
2022/12/23 05:43:27;;;;;;;1.00;0.80;;;11.50;99.90;;;14.20;63.15;96837.44;5044658;28;20045;-53
2022/12/23 05:45:54;;;;;;;1.30;0.90;;;11.50;99.90;;;14.20;63.10;96852.66;5043800;28;20053;-54
2022/12/23 05:48:23;;;;;;;1.30;0.80;;;11.50;99.90;;;14.20;63.03;96848.13;5044637;28;20250;-53
2022/12/23 05:50:52;;;;;;;0.90;0.67;;;11.60;99.90;;;14.37;62.45;96840.53;5044424;28;20045;-55
2022/12/23 05:53:20;;;;;;;1.07;0.90;;;11.60;99.90;;;14.07;63.42;96842.75;5043170;28;20045;-55
2022/12/23 05:55:49;;;;;;;0.80;0.73;;;11.60;99.90;;;14.08;63.42;96831.03;5044814;28;20048;-53
2022/12/23 05:58:17;;;;;;;2.30;1.00;;;11.50;99.90;;;14.20;62.90;96847.31;5036893;28;20045;-54
2022/12/23 06:00:44;;;;;;;1.58;0.90;;;11.50;99.90;;;13.77;63.80;96843.09;5043530;28;20048;-54
2022/12/23 06:03:12;;;;;;;0.50;0.50;;;11.50;99.90;;;13.65;64.32;96850.88;5043038;28;20044;-55
2022/12/23 06:05:42;;;;;;;0.77;0.70;;;11.40;99.90;;;13.76;63.73;96838.75;5044328;28;20162;-55
2022/12/23 06:08:10;;;;;;;1.00;0.65;;;11.40;99.90;;;13.68;64.14;96837.09;5044408;28;20053;-53
2022/12/23 06:10:38;;;;;;;2.15;0.88;;;11.40;99.90;;;13.72;63.93;96840.19;5044190;28;20056;-53
2022/12/23 06:13:06;;;;;;;0.60;0.57;;;11.40;99.90;;;13.81;63.82;96838.19;5044067;28;20049;-55
2022/12/23 06:15:33;;;;;;;1.20;0.80;;;11.40;99.90;;;13.84;63.42;96841.28;5044264;28;20051;-52
2022/12/23 06:18:01;;;;;;;0.87;0.80;;;11.40;99.90;;;13.83;63.44;96834.25;5044127;28;20050;-53
2022/12/23 06:20:29;;;;;;;0.70;0.70;;;11.40;99.90;;;13.63;64.29;96846.72;5044328;28;20042;-52
2022/12/23 06:22:57;;;;;;;1.23;0.68;;;11.40;99.90;;;13.71;63.76;96852.75;5043901;28;20041;-55
2022/12/23 06:25:24;;;;;;;1.45;0.80;;;11.40;99.90;;;13.67;64.05;96854.16;5044188;28;20047;-51
2022/12/23 06:27:52;;;;;;;0.73;0.60;;;11.40;99.90;;;13.70;63.81;96848.41;5042839;28;20052;-53
2022/12/23 06:30:20;;;;;;;0.98;0.63;;;11.40;99.90;;;13.70;63.70;96845.72;5035205;28;20251;-52
2022/12/23 06:32:48;;;;;;;0.80;0.50;;;11.40;99.90;;;13.89;63.56;96844.16;5043704;28;20239;-54
2022/12/23 06:35:16;;;;;;;0.60;0.55;;;11.50;99.90;;;13.85;63.55;96853.59;5043788;28;20041;-56
2022/12/23 06:37:44;;;;;;;0.93;0.80;;;11.50;99.90;;;13.95;63.34;96847.88;5043559;28;20045;-52
2022/12/23 06:40:12;;;;;;;0.63;0.57;;;11.50;99.90;;;14.18;62.54;96847.50;5043020;28;20252;-52
2022/12/23 06:42:40;;;;;;;0.82;0.73;;;11.60;99.90;;;14.37;62.20;96853.94;5042552;28;20052;-55
2022/12/23 06:45:09;;;;;;;1.23;0.90;;;11.60;99.90;;;14.32;62.39;96853.72;5043980;28;20254;-51
2022/12/23 06:47:36;;;;;;;1.87;1.30;;;11.60;99.90;;;14.10;63.26;96847.72;5043441;28;20037;-54
2022/12/23 06:50:05;;;;;;;6.45;1.00;;;11.50;99.90;;;13.90;63.95;96855.66;5043625;28;20209;-54
2022/12/23 06:52:33;;;;;;;3.03;1.27;;;11.50;99.90;;;14.18;63.36;96842.97;5043297;28;20046;-56
2022/12/23 06:55:01;;;;;;;1.67;0.90;;;11.50;99.90;;;14.38;62.56;96844.84;5043682;28;20370;-54
2022/12/23 06:57:28;;;;;;;1.20;1.10;;;11.60;99.90;;;14.57;62.16;96846.75;5043462;28;20071;-55
2022/12/23 06:59:56;;;;;;;1.77;1.40;;;11.70;99.90;;;14.58;62.12;96852.94;5043425;28;20370;-55
2022/12/23 07:02:24;;;;;;;0.97;0.80;;;11.70;99.90;;;14.56;62.14;96857.66;5043125;28;20250;-52
2022/12/23 07:04:52;;;;;;;0.95;0.90;;;11.80;99.90;;;14.71;61.63;96857.47;5043562;28;20037;-55
2022/12/23 07:07:20;;;;;;;2.30;0.80;;;11.80;99.90;;;14.79;61.53;96867.16;5043288;28;20049;-54
2022/12/23 07:09:48;;;;;;;1.77;1.17;;;11.90;99.90;;;14.83;61.30;96868.38;5043364;28;20225;-54
2022/12/23 07:12:15;;;;;;;2.13;1.43;;;11.90;99.90;;;14.86;61.19;96871.47;5043268;28;20053;-55
2022/12/23 07:14:43;;;;;;;2.83;1.30;;;11.90;99.90;;;14.80;61.43;96876.84;5043270;28;20336;-55
2022/12/23 07:17:11;;;;;;;2.75;1.05;;;11.90;99.90;;;14.85;61.50;96877.03;5042955;28;20053;-54
2022/12/23 07:19:40;;;;;;;2.22;0.65;;;11.90;99.90;;;14.79;61.45;96880.53;5043079;28;20052;-54
2022/12/23 07:22:09;;;;;;;0.80;0.80;;;11.90;99.90;;;14.90;61.27;96886.09;5042314;28;20230;-52
2022/12/23 07:24:37;;;;;;;2.83;1.05;;;11.90;99.90;;;14.79;61.45;96870.66;5041821;28;20071;-53
2022/12/23 07:27:05;;;;;;;3.60;1.40;;;11.90;99.90;;;14.88;61.16;96880.13;5042909;28;20048;-57
2022/12/23 07:29:35;;;;;;;1.55;0.95;;;11.90;99.90;;;14.93;61.16;96882.22;5042668;28;20056;-53
2022/12/23 07:32:03;;;;;;;1.33;1.20;;;11.90;99.90;;;14.98;60.86;96885.06;5042788;28;20479;-52
2022/12/23 07:34:31;;;;;;;0.70;0.68;;;11.90;99.90;;;14.74;61.65;96884.66;5042825;28;20056;-54
2022/12/23 07:36:59;;;;;;;1.10;0.90;;;11.90;99.90;;;14.86;61.18;96882.19;5041495;28;20049;-55
2022/12/23 07:39:27;;;;;;;3.22;1.02;;;11.90;99.90;;;14.94;61.31;96890.00;5042308;28;20041;-52
2022/12/23 07:41:55;;;;;;;1.02;0.70;;;12.00;99.90;;;14.98;60.83;96882.38;5042435;28;20047;-51
2022/12/23 07:44:43;;;;;;;0.70;0.70;;;12.00;99.90;;;14.98;60.50;96879.72;5037335;28;20060;-52
2022/12/23 07:47:11;;;;;;;1.15;1.02;;;12.00;99.90;;;14.98;60.53;96871.66;5041481;28;20041;-56
2022/12/23 07:49:38;;;;;;;1.17;0.90;;;12.00;99.90;;;14.85;60.79;96882.41;5042635;28;20047;-53
2022/12/23 07:52:06;;;;;;;1.37;0.70;;;12.00;99.90;;;14.87;60.52;96883.84;5040814;28;20052;-55
2022/12/23 07:54:34;;;;;;;1.08;0.90;;;12.00;99.90;;;14.70;61.02;96890.66;5042511;28;20348;-55
2022/12/23 07:57:02;;;;;;;3.10;1.13;;;11.90;99.90;;;14.83;60.45;96890.66;5042460;28;20063;-56
2022/12/23 07:59:30;;;;;;;2.30;1.30;;;12.00;99.90;;;14.82;60.49;96886.31;5041839;28;20053;-53
2022/12/23 08:01:57;;;;;;;0.87;0.87;;;12.00;99.90;;;14.86;60.15;96881.38;5042019;28;20255;-53
2022/12/23 08:04:26;;;;;;;0.70;0.70;;;12.00;99.90;;;14.27;61.53;96894.50;5041283;28;20045;-51
2022/12/23 08:06:54;;;;;;;0.95;0.60;;;11.90;99.90;;;14.62;60.56;96901.56;5039486;28;20347;-54
2022/12/23 08:09:21;;;;;;;1.02;0.93;;;11.90;99.90;;;14.54;60.93;96907.94;5042285;28;20080;-54
2022/12/23 08:11:49;;;;;;;1.20;1.10;;;11.90;99.90;;;14.55;60.62;96904.19;5041689;28;20243;-52
2022/12/23 08:14:17;;;;;;;0.38;0.35;;;11.80;99.90;;;14.06;61.65;96908.84;5041153;28;20049;-50
2022/12/23 08:16:46;;;;;;;1.27;0.87;;;11.70;99.90;;;14.41;60.92;96899.88;5042444;28;20221;-53
2022/12/23 08:19:14;;;;;;;5.10;1.00;;;11.70;99.90;;;14.57;60.43;96903.00;5042001;28;20370;-54
2022/12/23 08:21:42;;;;;;;1.23;0.60;;;11.80;99.90;;;14.72;60.11;96902.00;5042333;28;20053;-53
2022/12/23 08:24:10;;;;;;;1.13;0.80;;;11.90;99.90;;;14.26;61.17;96906.22;5041660;28;20045;-50
2022/12/23 08:26:37;;;;;;;0.50;0.50;;;11.80;99.90;;;14.51;60.61;96901.09;5033027;28;20060;-52
2022/12/23 08:29:05;;;;;;;0.33;0.33;;;11.80;99.90;;;14.42;60.79;96893.47;5039343;28;20041;-52
2022/12/23 08:31:33;;;;;;;0.75;0.60;;;11.80;99.90;;;14.22;61.37;96906.81;5041513;28;20049;-52
2022/12/23 08:34:01;;;;;;;3.40;0.88;;;11.70;99.90;;;14.42;60.95;96896.97;5041542;28;20052;-49
2022/12/23 08:36:32;;;;;;;1.13;0.60;;;11.80;99.90;;;14.64;60.51;96891.47;5041933;28;20041;-54
2022/12/23 08:39:07;;;;;;;8.30;1.27;;;11.90;99.90;;;14.75;60.14;96882.81;5041737;28;20255;-52
2022/12/23 08:41:39;;;;;;;6.60;1.20;;;12.00;99.90;;;14.87;60.03;96883.00;5041877;28;20049;-52
2022/12/23 08:44:08;;;;;;;2.05;0.65;;;12.00;99.90;;;14.99;59.71;96886.72;5040262;28;20060;-52
2022/12/23 08:46:36;;;;;;;8.48;1.73;;;12.10;99.90;;;14.98;59.79;96881.56;5041858;28;20207;-50
2022/12/23 08:49:05;;;;;;;0.50;0.50;;;12.10;99.90;;;15.02;59.53;96880.13;5040002;28;20052;-51
2022/12/23 08:51:35;;;;;;;0.30;0.30;;;12.20;99.90;;;15.08;59.40;96885.50;5041912;28;20049;-53
2022/12/23 08:54:03;;;;;;;1.20;0.35;;;12.20;99.90;;;15.13;59.28;96890.22;5041080;28;20255;-53
2022/12/23 08:56:35;;;;;;;0.75;0.35;;;12.30;99.90;;;15.06;59.42;96895.59;5040576;28;20041;-50
2022/12/23 08:59:03;;;;;;;0.73;0.40;;;12.30;99.90;;;15.13;59.43;96893.72;5041673;28;20042;-51
2022/12/23 09:01:33;;;;;;;0.30;0.30;;;12.30;99.90;;;15.16;59.54;96904.03;5040952;28;20251;-52
2022/12/23 09:04:04;;;;;;;0.40;0.40;;;12.30;99.90;;;15.17;59.46;96918.25;5040009;28;20233;-51
2022/12/23 09:06:40;;;;;;;0.30;0.30;;;12.30;99.90;;;15.18;59.44;96925.28;5037506;28;20045;-53
2022/12/23 09:09:13;;;;;;;16.48;9.23;;;12.20;99.90;;;15.24;59.27;96919.06;5044291;28;20037;-49
2022/12/23 09:11:41;;;;;;;36.15;20.35;;;12.30;99.90;;;15.30;59.17;96912.06;5038586;28;20049;-54
2022/12/23 09:14:09;;;;;;;28.08;16.58;;;12.40;99.90;;;15.35;59.19;96914.91;5038950;28;20045;-50
2022/12/23 09:16:38;;;;;;;4.07;1.98;;;12.40;99.90;;;15.39;58.98;96910.78;5045133;28;20041;-54
2022/12/23 09:19:06;;;;;;;1.98;0.85;;;12.40;99.90;;;15.41;58.90;96905.22;5044123;28;20060;-54
2022/12/23 09:21:34;;;;;;;1.35;1.00;;;12.40;99.90;;;15.46;58.98;96913.47;5044124;28;20041;-54
2022/12/23 09:24:02;;;;;;;0.80;0.68;;;12.50;99.90;;;15.50;58.88;96909.31;5045367;28;20045;-52
2022/12/23 09:26:31;;;;;;;0.90;0.73;;;12.50;99.90;;;15.56;58.85;96908.47;5037531;28;20365;-51
2022/12/23 09:28:59;;;;;;;1.13;0.90;;;12.60;99.90;;;15.58;58.80;96908.28;5045228;28;20045;-50
2022/12/23 09:31:27;;;;;;;1.10;0.85;;;12.60;99.90;;;15.61;58.69;96897.13;5045239;28;20051;-54
2022/12/23 09:34:04;;;;;;;1.38;1.00;;;12.70;99.90;;;15.60;58.66;96898.97;5043306;28;20053;-54
2022/12/23 09:36:32;;;;;;;1.23;0.88;;;12.70;99.90;;;15.62;59.10;96893.41;5043977;28;20098;-53
2022/12/23 09:39:00;;;;;;;1.42;1.20;;;12.70;99.90;;;15.59;58.69;96881.25;5045153;28;20034;-51
2022/12/23 09:41:54;;;;;;;1.05;0.90;;;12.70;99.90;;;15.63;59.18;96877.09;5044795;28;20259;-53
2022/12/23 09:44:40;;;;;;;;;;;12.80;99.90;;;15.73;58.61;96877.50;5044082;28;20256;-52
2022/12/23 09:47:16;;;;;;;3.70;1.25;;;12.70;99.90;;;15.72;58.46;96883.88;5043849;28;19917;-53
2022/12/23 09:49:59;;;;;;;1.35;1.00;;;12.70;99.90;;;15.72;58.60;96883.03;5043828;28;20296;-52
2022/12/23 09:52:53;;;;;;;2.67;1.43;;;12.70;99.90;;;15.73;58.59;96887.41;5043535;28;20229;-54
2022/12/23 09:55:26;;;;;;;2.58;1.85;;;12.70;99.90;;;15.77;58.24;96879.75;5044031;28;20053;-54
2022/12/23 09:58:07;;;;;;;0.80;0.80;;;12.70;99.90;;;15.78;58.33;96879.56;5044613;28;20047;-51
2022/12/23 10:00:44;;;;;;;1.35;1.17;;;12.70;99.90;;;15.75;58.44;96875.41;5035950;28;20042;-49
2022/12/23 10:04:06;;;;;;;0.93;0.80;;;12.70;99.90;;;15.74;58.45;96865.75;5043314;28;20055;-54
2022/12/23 10:06:37;;;;;;;1.95;1.08;;;12.70;99.90;;;15.77;58.28;96872.53;5035146;28;20061;-50
2022/12/23 10:09:08;;;;;;;2.63;1.10;;;12.70;99.90;;;15.75;58.36;96869.25;5044426;28;20071;-54
2022/12/23 10:11:45;;;;;;;3.17;1.38;;;12.70;99.90;;;15.78;58.45;96873.34;5042532;28;20037;-52
2022/12/23 10:14:17;;;;;;;1.10;0.90;;;12.70;99.90;;;15.80;58.18;96880.16;5042937;28;20045;-51
2022/12/23 10:17:09;;;;;;;1.05;0.95;;;12.70;99.90;;;15.79;58.35;96877.69;5043033;28;20061;-53
2022/12/23 10:19:47;;;;;;;2.97;1.30;;;12.70;99.90;;;15.80;58.32;96876.63;5020801;28;20049;-53
2022/12/23 10:22:48;;;;;;;2.40;1.50;;;12.70;99.90;;;15.78;58.39;96876.88;5042775;28;20351;-54
2022/12/23 10:25:27;;;;;;;5.15;1.50;;;12.60;99.90;;;15.82;58.25;96871.88;5042818;28;20061;-54
2022/12/23 10:27:55;;;;;;;5.78;2.53;;;12.70;99.90;;;15.80;58.33;96866.75;5043177;28;20045;-54
2022/12/23 10:30:23;;;;;;;7.60;2.00;;;12.70;99.90;;;15.79;58.30;96869.63;5044098;28;20378;-55
2022/12/23 10:33:43;;;;;;;5.40;2.35;;;12.70;99.90;;;15.80;58.70;96856.00;5043832;28;20275;-55
2022/12/23 10:37:08;;;;;;;3.78;1.80;;;12.70;99.90;;;15.80;58.47;96855.16;5038339;28;20057;-54
2022/12/23 10:40:00;;;;;;;2.70;1.60;;;12.70;99.90;;;15.83;58.30;96847.53;5025844;28;20053;-53
2022/12/23 10:42:45;;;;;;;4.35;1.90;;;12.70;99.90;;;15.84;58.27;96832.22;5042511;28;20041;-51
2022/12/23 10:45:48;;;;;;;2.60;1.60;;;12.70;99.90;;;15.82;58.43;96826.25;5043899;28;20045;-53
2022/12/23 10:49:04;;;;;;;3.38;1.60;;;12.70;99.90;;;15.80;58.32;96820.28;5043491;28;20053;-54
2022/12/23 10:51:48;;;;;;;2.33;1.70;;;12.70;99.90;;;15.80;58.75;96818.44;5043373;28;20068;-53
2022/12/23 10:54:29;;;;;;;4.25;3.35;;;12.70;99.90;;;15.80;58.68;96821.13;5042649;28;20041;-54
2022/12/23 10:56:58;;;;;;;14.73;11.48;;;12.70;99.90;;;15.80;58.70;96817.59;5042772;28;20071;-60
2022/12/23 10:59:31;;;;;;;25.33;21.05;;;12.70;99.90;;;15.80;58.60;96812.22;5042323;28;20049;-60
2022/12/23 11:02:30;;;;;;;9.90;6.15;;;12.70;99.90;;;15.79;58.61;96810.59;5043301;28;20044;-60
2022/12/23 11:04:58;;;;;;;6.50;2.90;;;12.70;99.90;;;15.83;58.63;96817.19;5040060;28;20267;-60
2022/12/23 11:07:29;;;;;;;5.28;3.40;;;12.70;99.90;;;15.82;58.83;96807.47;5039680;28;20056;-60
2022/12/23 11:10:24;;;;;;;6.47;3.88;;;12.70;99.90;;;15.83;59.00;96799.22;5042326;28;20048;-60
2022/12/23 11:12:53;;;;;;;4.57;3.13;;;12.70;99.90;;;15.81;59.00;96806.66;5041872;28;20046;-60
2022/12/23 11:15:37;;;;;;;4.78;3.00;;;12.70;99.90;;;15.82;58.99;96804.78;5043216;28;20041;-60